sensor_id;sensor_type;location;lat;lon;timestamp;pressure;altitude;pressure_sealevel;temperature;humidity
48553;BME280;34335;51.566;6.994;2023-03-22T00:00:35;100492.09;;;9.97;100.00
48553;BME280;34335;51.566;6.994;2023-03-22T00:03:01;100486.94;;;9.94;100.00
48553;BME280;34335;51.566;6.994;2023-03-22T00:05:27;100481.72;;;10.01;100.00
48553;BME280;34335;51.566;6.994;2023-03-22T00:07:54;100479.13;;;9.96;100.00
48553;BME280;34335;51.566;6.994;2023-03-22T00:10:23;100479.13;;;9.96;100.00
48553;BME280;34335;51.566;6.994;2023-03-22T00:12:49;100479.16;;;9.90;100.00
48553;BME280;34335;51.566;6.994;2023-03-22T00:15:15;100484.34;;;9.87;100.00
48553;BME280;34335;51.566;6.994;2023-03-22T00:17:40;100471.34;;;9.94;100.00
48553;BME280;34335;51.566;6.994;2023-03-22T00:20:06;100478.28;;;10.00;100.00
48553;BME280;34335;51.566;6.994;2023-03-22T00:22:32;100478.28;;;9.92;100.00
48553;BME280;34335;51.566;6.994;2023-03-22T00:24:57;100473.06;;;9.95;100.00
48553;BME280;34335;51.566;6.994;2023-03-22T00:27:23;100469.59;;;9.96;100.00
48553;BME280;34335;51.566;6.994;2023-03-22T00:29:50;100465.28;;;9.97;100.00
48553;BME280;34335;51.566;6.994;2023-03-22T00:32:16;100464.41;;;9.90;100.00
48553;BME280;34335;51.566;6.994;2023-03-22T00:34:41;100457.50;;;9.80;100.00
48553;BME280;34335;51.566;6.994;2023-03-22T00:37:06;100459.19;;;9.96;100.00
48553;BME280;34335;51.566;6.994;2023-03-22T00:39:32;100454.88;;;9.86;100.00
48553;BME280;34335;51.566;6.994;2023-03-22T00:41:57;100455.78;;;9.79;100.00
48553;BME280;34335;51.566;6.994;2023-03-22T00:44:22;100452.28;;;9.86;100.00
48553;BME280;34335;51.566;6.994;2023-03-22T00:46:47;100453.16;;;9.91;100.00
48553;BME280;34335;51.566;6.994;2023-03-22T00:49:13;100447.97;;;9.88;100.00
48553;BME280;34335;51.566;6.994;2023-03-22T00:51:38;100441.03;;;9.95;100.00
48553;BME280;34335;51.566;6.994;2023-03-22T00:54:03;100439.31;;;9.86;100.00
48553;BME280;34335;51.566;6.994;2023-03-22T00:56:28;100434.97;;;9.91;100.00
48553;BME280;34335;51.566;6.994;2023-03-22T00:58:54;100434.97;;;9.88;100.00
48553;BME280;34335;51.566;6.994;2023-03-22T01:01:19;100437.59;;;9.90;100.00
48553;BME280;34335;51.566;6.994;2023-03-22T01:03:45;100426.31;;;9.92;100.00
48553;BME280;34335;51.566;6.994;2023-03-22T01:06:14;100424.59;;;9.88;100.00
48553;BME280;34335;51.566;6.994;2023-03-22T01:08:39;100418.50;;;9.94;100.00
48553;BME280;34335;51.566;6.994;2023-03-22T01:11:06;100418.50;;;9.95;100.00
48553;BME280;34335;51.566;6.994;2023-03-22T01:13:32;100422.81;;;10.06;100.00
48553;BME280;34335;51.566;6.994;2023-03-22T01:15:58;100410.72;;;9.98;100.00
48553;BME280;34335;51.566;6.994;2023-03-22T01:18:23;100415.94;;;9.89;100.00
48553;BME280;34335;51.566;6.994;2023-03-22T01:20:50;100400.34;;;9.89;100.00
48553;BME280;34335;51.566;6.994;2023-03-22T01:23:15;100409.03;;;9.90;100.00
48553;BME280;34335;51.566;6.994;2023-03-22T01:25:41;100413.31;;;9.91;100.00
48553;BME280;34335;51.566;6.994;2023-03-22T01:28:06;100403.81;;;9.87;100.00
48553;BME280;34335;51.566;6.994;2023-03-22T01:30:31;100403.81;;;9.88;100.00
48553;BME280;34335;51.566;6.994;2023-03-22T01:32:57;100396.88;;;9.87;100.00
48553;BME280;34335;51.566;6.994;2023-03-22T01:35:22;100389.09;;;9.89;100.00
48553;BME280;34335;51.566;6.994;2023-03-22T01:37:48;100382.19;;;9.85;100.00
48553;BME280;34335;51.566;6.994;2023-03-22T01:40:14;100385.63;;;9.88;100.00
48553;BME280;34335;51.566;6.994;2023-03-22T01:42:40;100378.72;;;9.82;100.00
48553;BME280;34335;51.566;6.994;2023-03-22T01:50:08;100365.78;;;9.72;100.00
48553;BME280;34335;51.566;6.994;2023-03-22T01:52:34;100362.34;;;9.66;100.00
48553;BME280;34335;51.566;6.994;2023-03-22T01:54:59;100357.13;;;9.73;100.00
48553;BME280;34335;51.566;6.994;2023-03-22T01:57:25;100359.69;;;9.77;100.00
48553;BME280;34335;51.566;6.994;2023-03-22T01:59:50;100357.97;;;9.75;100.00
48553;BME280;34335;51.566;6.994;2023-03-22T02:02:16;100348.47;;;9.71;100.00
48553;BME280;34335;51.566;6.994;2023-03-22T02:04:46;100345.84;;;9.72;100.00
48553;BME280;34335;51.566;6.994;2023-03-22T02:07:16;100353.69;;;9.64;100.00
48553;BME280;34335;51.566;6.994;2023-03-22T02:09:50;100345.03;;;9.65;100.00
48553;BME280;34335;51.566;6.994;2023-03-22T02:15:21;100338.97;;;9.56;100.00
48553;BME280;34335;51.566;6.994;2023-03-22T02:21:16;100337.28;;;9.56;100.00
48553;BME280;34335;51.566;6.994;2023-03-22T02:27:13;100322.59;;;9.46;100.00
48553;BME280;34335;51.566;6.994;2023-03-22T02:29:40;100316.53;;;9.47;100.00
48553;BME280;34335;51.566;6.994;2023-03-22T02:35:24;100310.47;;;9.40;100.00
48553;BME280;34335;51.566;6.994;2023-03-22T02:38:39;100311.34;;;9.42;100.00
48553;BME280;34335;51.566;6.994;2023-03-22T02:41:12;100303.56;;;9.38;100.00
48553;BME280;34335;51.566;6.994;2023-03-22T02:44:00;100301.84;;;9.37;100.00
48553;BME280;34335;51.566;6.994;2023-03-22T02:46:42;100296.66;;;9.33;100.00
48553;BME280;34335;51.566;6.994;2023-03-22T02:54:56;100288.00;;;9.28;100.00
48553;BME280;34335;51.566;6.994;2023-03-22T02:57:40;100290.59;;;9.30;100.00
48553;BME280;34335;51.566;6.994;2023-03-22T03:00:09;100295.78;;;9.28;100.00
48553;BME280;34335;51.566;6.994;2023-03-22T03:02:40;100286.28;;;9.24;100.00
48553;BME280;34335;51.566;6.994;2023-03-22T03:05:07;100286.28;;;9.27;100.00
48553;BME280;34335;51.566;6.994;2023-03-22T03:07:36;100284.59;;;9.17;100.00
48553;BME280;34335;51.566;6.994;2023-03-22T03:10:03;100280.22;;;9.19;100.00
48553;BME280;34335;51.566;6.994;2023-03-22T03:12:28;100288.88;;;9.16;100.00
48553;BME280;34335;51.566;6.994;2023-03-22T03:14:54;100288.88;;;9.16;100.00
48553;BME280;34335;51.566;6.994;2023-03-22T03:23:15;100282.00;;;9.04;100.00
48553;BME280;34335;51.566;6.994;2023-03-22T03:31:40;100282.00;;;9.03;100.00
48553;BME280;34335;51.566;6.994;2023-03-22T03:34:17;100280.28;;;9.02;100.00
48553;BME280;34335;51.566;6.994;2023-03-22T03:36:53;100285.47;;;8.94;100.00
48553;BME280;34335;51.566;6.994;2023-03-22T03:39:23;100274.22;;;8.92;100.00
48553;BME280;34335;51.566;6.994;2023-03-22T03:41:52;100270.78;;;8.93;100.00
48553;BME280;34335;51.566;6.994;2023-03-22T03:44:19;100281.16;;;8.93;100.00
48553;BME280;34335;51.566;6.994;2023-03-22T03:46:45;100263.84;;;8.95;100.00
48553;BME280;34335;51.566;6.994;2023-03-22T03:49:12;100271.63;;;8.87;100.00
48553;BME280;34335;51.566;6.994;2023-03-22T03:51:48;100273.38;;;8.85;100.00
48553;BME280;34335;51.566;6.994;2023-03-22T03:54:14;100263.88;;;8.80;100.00
48553;BME280;34335;51.566;6.994;2023-03-22T03:56:39;100264.75;;;8.76;100.00
48553;BME280;34335;51.566;6.994;2023-03-22T03:59:04;100267.31;;;8.77;100.00
48553;BME280;34335;51.566;6.994;2023-03-22T04:01:32;100260.44;;;8.78;100.00
48553;BME280;34335;51.566;6.994;2023-03-22T04:03:58;100263.88;;;8.80;100.00
48553;BME280;34335;51.566;6.994;2023-03-22T04:06:23;100260.44;;;8.78;100.00
48553;BME280;34335;51.566;6.994;2023-03-22T04:08:48;100256.94;;;8.85;100.00
48553;BME280;34335;51.566;6.994;2023-03-22T04:11:18;100262.16;;;8.85;100.00
48553;BME280;34335;51.566;6.994;2023-03-22T04:13:43;100257.81;;;8.85;100.00
48553;BME280;34335;51.566;6.994;2023-03-22T04:16:09;100259.56;;;8.74;100.00
48553;BME280;34335;51.566;6.994;2023-03-22T04:18:34;100259.56;;;8.68;100.00
48553;BME280;34335;51.566;6.994;2023-03-22T04:20:59;100261.28;;;8.81;100.00
48553;BME280;34335;51.566;6.994;2023-03-22T04:23:25;100262.16;;;8.76;100.00
48553;BME280;34335;51.566;6.994;2023-03-22T04:25:50;100254.38;;;8.72;100.00
48553;BME280;34335;51.566;6.994;2023-03-22T04:28:16;100251.78;;;8.63;100.00
48553;BME280;34335;51.566;6.994;2023-03-22T04:30:43;100250.03;;;8.75;100.00
48553;BME280;34335;51.566;6.994;2023-03-22T04:33:10;100246.59;;;8.72;100.00
48553;BME280;34335;51.566;6.994;2023-03-22T04:35:36;100242.25;;;8.67;100.00
48553;BME280;34335;51.566;6.994;2023-03-22T04:38:01;100232.78;;;8.60;100.00
48553;BME280;34335;51.566;6.994;2023-03-22T04:40:27;100231.03;;;8.72;100.00
48553;BME280;34335;51.566;6.994;2023-03-22T04:42:56;100242.28;;;8.64;100.00
48553;BME280;34335;51.566;6.994;2023-03-22T04:45:22;100240.53;;;8.69;100.00
48553;BME280;34335;51.566;6.994;2023-03-22T04:47:47;100246.59;;;8.62;100.00
48553;BME280;34335;51.566;6.994;2023-03-22T04:50:13;100256.97;;;8.63;100.00
48553;BME280;34335;51.566;6.994;2023-03-22T04:52:38;100251.78;;;8.65;100.00
48553;BME280;34335;51.566;6.994;2023-03-22T04:55:04;100248.31;;;8.66;100.00
48553;BME280;34335;51.566;6.994;2023-03-22T04:57:29;100240.53;;;8.69;100.00
48553;BME280;34335;51.566;6.994;2023-03-22T04:59:54;100244.00;;;8.71;100.00
48553;BME280;34335;51.566;6.994;2023-03-22T05:02:19;100245.75;;;8.67;100.00
48553;BME280;34335;51.566;6.994;2023-03-22T05:04:45;100241.41;;;8.66;100.00
48553;BME280;34335;51.566;6.994;2023-03-22T05:07:10;100249.16;;;8.77;100.00
48553;BME280;34335;51.566;6.994;2023-03-22T05:09:35;100245.72;;;8.70;100.00
48553;BME280;34335;51.566;6.994;2023-03-22T05:12:01;100243.13;;;8.64;100.00
48553;BME280;34335;51.566;6.994;2023-03-22T05:14:26;100244.84;;;8.62;100.00
48553;BME280;34335;51.566;6.994;2023-03-22T05:16:51;100230.19;;;8.60;100.00
48553;BME280;34335;51.566;6.994;2023-03-22T05:19:17;100235.38;;;8.64;100.00
48553;BME280;34335;51.566;6.994;2023-03-22T05:21:46;100237.09;;;8.59;100.00
48553;BME280;34335;51.566;6.994;2023-03-22T05:24:12;100231.03;;;8.63;100.00
48553;BME280;34335;51.566;6.994;2023-03-22T05:26:37;100239.69;;;8.56;100.00
48553;BME280;34335;51.566;6.994;2023-03-22T05:29:07;100246.59;;;8.69;100.00
48553;BME280;34335;51.566;6.994;2023-03-22T05:31:32;100246.59;;;8.77;100.00
48553;BME280;34335;51.566;6.994;2023-03-22T05:33:58;100237.09;;;8.73;100.00
48553;BME280;34335;51.566;6.994;2023-03-22T05:36:24;100240.53;;;8.64;100.00
48553;BME280;34335;51.566;6.994;2023-03-22T05:38:49;100243.13;;;8.61;100.00
48553;BME280;34335;51.566;6.994;2023-03-22T05:41:15;100244.00;;;8.71;100.00
48553;BME280;34335;51.566;6.994;2023-03-22T05:43:40;100230.19;;;8.72;100.00
48553;BME280;34335;51.566;6.994;2023-03-22T05:46:07;100233.59;;;8.86;100.00
48553;BME280;34335;51.566;6.994;2023-03-22T05:48:33;100240.53;;;8.83;100.00
48553;BME280;34335;51.566;6.994;2023-03-22T05:50:58;100240.53;;;8.94;100.00
48553;BME280;34335;51.566;6.994;2023-03-22T05:53:23;100237.06;;;9.04;100.00
48553;BME280;34335;51.566;6.994;2023-03-22T05:55:49;100242.25;;;9.01;100.00
48553;BME280;34335;51.566;6.994;2023-03-22T05:58:14;100245.69;;;9.03;100.00
48553;BME280;34335;51.566;6.994;2023-03-22T06:00:43;100243.09;;;9.04;100.00
48553;BME280;34335;51.566;6.994;2023-03-22T06:03:09;100235.31;;;9.03;100.00
48553;BME280;34335;51.566;6.994;2023-03-22T06:05:34;100243.97;;;9.07;100.00
48553;BME280;34335;51.566;6.994;2023-03-22T06:08:00;100241.34;;;9.13;100.00
48553;BME280;34335;51.566;6.994;2023-03-22T06:10:26;100227.53;;;9.01;100.00
48553;BME280;34335;51.566;6.994;2023-03-22T06:12:52;100236.16;;;9.10;100.00
48553;BME280;34335;51.566;6.994;2023-03-22T06:15:18;100232.69;;;9.18;100.00
48553;BME280;34335;51.566;6.994;2023-03-22T06:17:43;100232.63;;;9.29;100.00
48553;BME280;34335;51.566;6.994;2023-03-22T06:20:11;100234.41;;;9.27;100.00
48553;BME280;34335;51.566;6.994;2023-03-22T06:22:37;100243.03;;;9.31;100.00
48553;BME280;34335;51.566;6.994;2023-03-22T06:25:04;100233.50;;;9.31;100.00
48553;BME280;34335;51.566;6.994;2023-03-22T06:27:29;100226.59;;;9.30;100.00
48553;BME280;34335;51.566;6.994;2023-03-22T06:29:55;100232.59;;;9.39;100.00
48553;BME280;34335;51.566;6.994;2023-03-22T06:32:21;100225.72;;;9.31;100.00
48553;BME280;34335;51.566;6.994;2023-03-22T06:34:51;100225.75;;;9.17;100.00
48553;BME280;34335;51.566;6.994;2023-03-22T06:37:16;100227.41;;;9.42;100.00
48553;BME280;34335;51.566;6.994;2023-03-22T06:39:42;100214.47;;;9.35;100.00
48553;BME280;34335;51.566;6.994;2023-03-22T06:42:07;100212.72;;;9.39;100.00
48553;BME280;34335;51.566;6.994;2023-03-22T06:44:33;100215.25;;;9.53;100.00
48553;BME280;34335;51.566;6.994;2023-03-22T06:46:58;100216.94;;;9.63;100.00
48553;BME280;34335;51.566;6.994;2023-03-22T06:49:23;100224.72;;;9.71;100.00
48553;BME280;34335;51.566;6.994;2023-03-22T06:51:48;100229.06;;;9.64;100.00
48553;BME280;34335;51.566;6.994;2023-03-22T06:54:14;100218.66;;;9.69;100.00
48553;BME280;34335;51.566;6.994;2023-03-22T06:56:40;100224.69;;;9.76;100.00
48553;BME280;34335;51.566;6.994;2023-03-22T06:59:06;100218.59;;;9.72;100.00
48553;BME280;34335;51.566;6.994;2023-03-22T07:01:31;100217.66;;;9.87;100.00
48553;BME280;34335;51.566;6.994;2023-03-22T07:03:56;100208.19;;;9.83;100.00
48553;BME280;34335;51.566;6.994;2023-03-22T07:06:21;100203.75;;;10.01;100.00
48553;BME280;34335;51.566;6.994;2023-03-22T07:08:47;100202.88;;;9.95;100.00
48553;BME280;34335;51.566;6.994;2023-03-22T07:11:12;100209.84;;;9.93;100.00
48553;BME280;34335;51.566;6.994;2023-03-22T07:13:37;100209.81;;;9.96;100.00
48553;BME280;34335;51.566;6.994;2023-03-22T07:16:03;100209.00;;;9.94;100.00
48553;BME280;34335;51.566;6.994;2023-03-22T07:18:28;100202.91;;;9.91;100.00
48553;BME280;34335;51.566;6.994;2023-03-22T07:20:54;100205.47;;;9.98;100.00
48553;BME280;34335;51.566;6.994;2023-03-22T07:23:20;100205.44;;;10.03;100.00
48553;BME280;34335;51.566;6.994;2023-03-22T07:25:46;100200.19;;;10.14;100.00
48553;BME280;34335;51.566;6.994;2023-03-22T07:28:12;100196.56;;;10.35;100.00
48553;BME280;34335;51.566;6.994;2023-03-22T07:30:38;100199.94;;;10.48;100.00
48553;BME280;34335;51.566;6.994;2023-03-22T07:33:05;100207.66;;;10.60;100.00
48553;BME280;34335;51.566;6.994;2023-03-22T07:35:31;100202.34;;;10.70;100.00
48553;BME280;34335;51.566;6.994;2023-03-22T07:37:56;100194.56;;;10.67;100.00
48553;BME280;34335;51.566;6.994;2023-03-22T07:40:22;100189.31;;;10.71;100.00
48553;BME280;34335;51.566;6.994;2023-03-22T07:42:49;100202.19;;;10.85;100.00
48553;BME280;34335;51.566;6.994;2023-03-22T07:45:14;100191.66;;;10.98;100.00
48553;BME280;34335;51.566;6.994;2023-03-22T07:47:40;100197.66;;;11.06;100.00
48553;BME280;34335;51.566;6.994;2023-03-22T07:50:06;100194.16;;;11.07;100.00
48553;BME280;34335;51.566;6.994;2023-03-22T07:52:31;100197.66;;;11.06;100.00
48553;BME280;34335;51.566;6.994;2023-03-22T07:54:57;100210.75;;;10.97;100.00
48553;BME280;34335;51.566;6.994;2023-03-22T07:57:22;100210.78;;;10.94;100.00
48553;BME280;34335;51.566;6.994;2023-03-22T07:59:47;100214.31;;;10.86;100.00
48553;BME280;34335;51.566;6.994;2023-03-22T08:02:12;100200.47;;;10.86;100.00
48553;BME280;34335;51.566;6.994;2023-03-22T08:04:38;100203.91;;;10.88;100.00
48553;BME280;34335;51.566;6.994;2023-03-22T08:07:03;100203.03;;;10.90;100.00
48553;BME280;34335;51.566;6.994;2023-03-22T08:09:29;100203.88;;;10.91;100.00
48553;BME280;34335;51.566;6.994;2023-03-22T08:11:55;100196.03;;;10.93;100.00
48553;BME280;34335;51.566;6.994;2023-03-22T08:14:20;100199.50;;;10.95;100.00
48553;BME280;34335;51.566;6.994;2023-03-22T08:16:46;100208.13;;;10.98;100.00
48553;BME280;34335;51.566;6.994;2023-03-22T08:19:11;100202.81;;;11.11;100.00
48553;BME280;34335;51.566;6.994;2023-03-22T08:21:37;100211.50;;;11.06;100.00
48553;BME280;34335;51.566;6.994;2023-03-22T08:24:03;100207.28;;;10.98;100.00
48553;BME280;34335;51.566;6.994;2023-03-22T08:26:29;100208.09;;;11.04;100.00
48553;BME280;34335;51.566;6.994;2023-03-22T08:28:54;100208.16;;;10.97;100.00
48553;BME280;34335;51.566;6.994;2023-03-22T08:31:20;100230.63;;;11.04;100.00
48553;BME280;34335;51.566;6.994;2023-03-22T08:33:47;100234.06;;;11.06;100.00
48553;BME280;34335;51.566;6.994;2023-03-22T08:36:16;100224.63;;;10.99;100.00
48553;BME280;34335;51.566;6.994;2023-03-22T08:38:42;100212.41;;;11.04;100.00
48553;BME280;34335;51.566;6.994;2023-03-22T08:41:09;100222.88;;;10.98;100.00
48553;BME280;34335;51.566;6.994;2023-03-22T08:43:35;100219.41;;;10.97;100.00
48553;BME280;34335;51.566;6.994;2023-03-22T08:46:00;100232.44;;;10.99;100.00
48553;BME280;34335;51.566;6.994;2023-03-22T08:48:26;100221.97;;;11.03;100.00
48553;BME280;34335;51.566;6.994;2023-03-22T08:50:53;100221.91;;;11.08;100.00
48553;BME280;34335;51.566;6.994;2023-03-22T08:53:19;100201.94;;;11.10;100.00
48553;BME280;34335;51.566;6.994;2023-03-22T08:55:44;100223.59;;;11.14;100.00
48553;BME280;34335;51.566;6.994;2023-03-22T08:58:11;100205.34;;;11.15;100.00
48553;BME280;34335;51.566;6.994;2023-03-22T09:00:37;100209.66;;;11.18;100.00
48553;BME280;34335;51.566;6.994;2023-03-22T09:03:03;100200.06;;;11.21;100.00
48553;BME280;34335;51.566;6.994;2023-03-22T09:05:28;100213.06;;;11.21;100.00
48553;BME280;34335;51.566;6.994;2023-03-22T09:07:54;100215.75;;;11.15;100.00
48553;BME280;34335;51.566;6.994;2023-03-22T09:10:20;100213.97;;;11.20;100.00
48553;BME280;34335;51.566;6.994;2023-03-22T09:12:46;100223.28;;;11.40;100.00
48553;BME280;34335;51.566;6.994;2023-03-22T09:15:11;100204.16;;;11.41;100.00
48553;BME280;34335;51.566;6.994;2023-03-22T09:17:36;100204.06;;;11.50;100.00
48553;BME280;34335;51.566;6.994;2023-03-22T09:20:02;100210.84;;;11.64;100.00
48553;BME280;34335;51.566;6.994;2023-03-22T09:22:28;100224.75;;;11.60;100.00
48553;BME280;34335;51.566;6.994;2023-03-22T09:24:53;100204.75;;;11.65;100.00
48553;BME280;34335;51.566;6.994;2023-03-22T09:27:18;100212.59;;;11.63;100.00
48553;BME280;34335;51.566;6.994;2023-03-22T09:29:44;100215.66;;;11.92;100.00
48553;BME280;34335;51.566;6.994;2023-03-22T09:32:09;100197.66;;;11.76;100.00
48553;BME280;34335;51.566;6.994;2023-03-22T09:34:34;100204.78;;;11.62;100.00
48553;BME280;34335;51.566;6.994;2023-03-22T09:37:00;100209.16;;;11.58;100.00
48553;BME280;34335;51.566;6.994;2023-03-22T09:39:27;100210.19;;;11.46;100.00
48553;BME280;34335;51.566;6.994;2023-03-22T09:41:55;100201.69;;;11.33;100.00
48553;BME280;34335;51.566;6.994;2023-03-22T09:44:39;100204.94;;;11.49;100.00
48553;BME280;34335;51.566;6.994;2023-03-22T09:47:14;100209.28;;;11.49;100.00
48553;BME280;34335;51.566;6.994;2023-03-22T09:49:43;100210.25;;;11.40;100.00
48553;BME280;34335;51.566;6.994;2023-03-22T09:52:14;100203.22;;;11.48;100.00
48553;BME280;34335;51.566;6.994;2023-03-22T09:54:42;100199.56;;;11.62;100.00
48553;BME280;34335;51.566;6.994;2023-03-22T09:57:31;100208.25;;;11.61;100.00
48553;BME280;34335;51.566;6.994;2023-03-22T10:00:09;100209.94;;;11.68;100.00
48553;BME280;34335;51.566;6.994;2023-03-22T10:05:21;100181.06;;;11.80;100.00
48553;BME280;34335;51.566;6.994;2023-03-22T10:10:30;100190.66;;;11.78;100.00
48553;BME280;34335;51.566;6.994;2023-03-22T10:13:14;100194.28;;;11.69;100.00
48553;BME280;34335;51.566;6.994;2023-03-22T10:15:44;100188.75;;;11.90;100.00
48553;BME280;34335;51.566;6.994;2023-03-22T10:18:15;100204.66;;;11.71;100.00
48553;BME280;34335;51.566;6.994;2023-03-22T10:20:46;100184.72;;;11.68;100.00
48553;BME280;34335;51.566;6.994;2023-03-22T10:23:25;100171.47;;;11.85;100.00
48553;BME280;34335;51.566;6.994;2023-03-22T10:25:52;100162.22;;;12.22;100.00
48553;BME280;34335;51.566;6.994;2023-03-22T10:28:28;100162.59;;;12.52;100.00
48553;BME280;34335;51.566;6.994;2023-03-22T10:30:57;100165.41;;;12.41;100.00
48553;BME280;34335;51.566;6.994;2023-03-22T10:33:32;100178.56;;;12.35;100.00
48553;BME280;34335;51.566;6.994;2023-03-22T10:36:01;100165.06;;;12.60;100.00
48553;BME280;34335;51.566;6.994;2023-03-22T10:38:27;100183.75;;;12.35;100.00
48553;BME280;34335;51.566;6.994;2023-03-22T10:40:55;100179.66;;;12.19;100.00
48553;BME280;34335;51.566;6.994;2023-03-22T10:43:29;100189.22;;;12.21;100.00
48553;BME280;34335;51.566;6.994;2023-03-22T10:45:56;100186.72;;;12.13;100.00
48553;BME280;34335;51.566;6.994;2023-03-22T10:48:31;100188.31;;;12.21;100.00
48553;BME280;34335;51.566;6.994;2023-03-22T10:50:58;100185.75;;;12.18;100.00
48553;BME280;34335;51.566;6.994;2023-03-22T10:53:46;100182.56;;;12.02;100.00
48553;BME280;34335;51.566;6.994;2023-03-22T10:56:13;100178.00;;;12.14;100.00
48553;BME280;34335;51.566;6.994;2023-03-22T10:58:39;100178.94;;;12.10;100.00
48553;BME280;34335;51.566;6.994;2023-03-22T11:01:23;100170.03;;;12.22;100.00
48553;BME280;34335;51.566;6.994;2023-03-22T11:03:51;100178.63;;;12.30;100.00
48553;BME280;34335;51.566;6.994;2023-03-22T11:06:25;100173.06;;;12.51;100.00
48553;BME280;34335;51.566;6.994;2023-03-22T11:08:53;100172.69;;;12.72;100.00
48553;BME280;34335;51.566;6.994;2023-03-22T11:11:29;100183.16;;;12.18;100.00
48553;BME280;34335;51.566;6.994;2023-03-22T11:14:06;100180.41;;;12.27;100.00
48553;BME280;34335;51.566;6.994;2023-03-22T11:19:24;100184.72;;;12.28;100.00
48553;BME280;34335;51.566;6.994;2023-03-22T11:21:51;100181.53;;;12.10;100.00
48553;BME280;34335;51.566;6.994;2023-03-22T11:24:17;100188.28;;;12.24;100.00
48553;BME280;34335;51.566;6.994;2023-03-22T11:27:03;100169.25;;;12.19;100.00
48553;BME280;34335;51.566;6.994;2023-03-22T11:29:38;100176.97;;;12.23;100.00
48553;BME280;34335;51.566;6.994;2023-03-22T11:32:38;100175.78;;;12.44;100.00
48553;BME280;34335;51.566;6.994;2023-03-22T11:35:11;100184.81;;;12.23;100.00
48553;BME280;34335;51.566;6.994;2023-03-22T11:37:43;100180.50;;;12.21;100.00
48553;BME280;34335;51.566;6.994;2023-03-22T11:42:39;100172.41;;;12.36;100.00
48553;BME280;34335;51.566;6.994;2023-03-22T11:45:06;100171.56;;;12.36;100.00
48553;BME280;34335;51.566;6.994;2023-03-22T11:47:36;100161.09;;;12.37;100.00
48553;BME280;34335;51.566;6.994;2023-03-22T11:50:05;100172.72;;;12.18;100.00
48553;BME280;34335;51.566;6.994;2023-03-22T11:52:31;100173.06;;;11.94;100.00
48553;BME280;34335;51.566;6.994;2023-03-22T11:54:58;100169.38;;;12.09;100.00
48553;BME280;34335;51.566;6.994;2023-03-22T11:57:26;100163.25;;;12.12;100.00
48553;BME280;34335;51.566;6.994;2023-03-22T12:00:11;100159.03;;;12.06;100.00
48553;BME280;34335;51.566;6.994;2023-03-22T12:03:03;100147.94;;;11.89;100.00
48553;BME280;34335;51.566;6.994;2023-03-22T12:05:32;100156.03;;;11.72;100.00
48553;BME280;34335;51.566;6.994;2023-03-22T12:10:48;100170.88;;;11.65;100.00
48553;BME280;34335;51.566;6.994;2023-03-22T12:15:52;100161.09;;;11.82;100.00
48553;BME280;34335;51.566;6.994;2023-03-22T12:18:21;100157.56;;;11.87;100.00
48553;BME280;34335;51.566;6.994;2023-03-22T12:20:53;100155.75;;;11.90;100.00
48553;BME280;34335;51.566;6.994;2023-03-22T12:23:22;100156.50;;;12.00;100.00
48553;BME280;34335;51.566;6.994;2023-03-22T12:28:50;100154.41;;;12.24;100.00
48553;BME280;34335;51.566;6.994;2023-03-22T12:31:23;100158.25;;;11.98;100.00
48553;BME280;34335;51.566;6.994;2023-03-22T12:33:53;100166.19;;;11.90;100.00
48553;BME280;34335;51.566;6.994;2023-03-22T12:36:40;100168.91;;;11.82;100.00
48553;BME280;34335;51.566;6.994;2023-03-22T12:39:11;100165.38;;;11.85;100.00
48553;BME280;34335;51.566;6.994;2023-03-22T12:41:39;100176.59;;;11.90;100.00
48553;BME280;34335;51.566;6.994;2023-03-22T12:44:16;100170.59;;;11.85;100.00
48553;BME280;34335;51.566;6.994;2023-03-22T12:46:47;100161.78;;;11.94;100.00
48553;BME280;34335;51.566;6.994;2023-03-22T12:49:29;100176.75;;;11.79;100.00
48553;BME280;34335;51.566;6.994;2023-03-22T12:54:49;100183.91;;;11.65;100.00
48553;BME280;34335;51.566;6.994;2023-03-22T12:57:17;100178.66;;;11.68;100.00
48553;BME280;34335;51.566;6.994;2023-03-22T12:59:44;100181.25;;;11.69;100.00
48553;BME280;34335;51.566;6.994;2023-03-22T13:02:19;100198.53;;;11.74;100.00
48553;BME280;34335;51.566;6.994;2023-03-22T13:04:53;100173.22;;;11.83;100.00
48553;BME280;34335;51.566;6.994;2023-03-22T13:09:50;100164.59;;;11.80;100.00
48553;BME280;34335;51.566;6.994;2023-03-22T13:32:56;100158.19;;;12.04;100.00
48553;BME280;34335;51.566;6.994;2023-03-22T13:35:39;100149.53;;;12.02;100.00
48553;BME280;34335;51.566;6.994;2023-03-22T13:38:09;100155.63;;;12.01;100.00
48553;BME280;34335;51.566;6.994;2023-03-22T13:46:25;100134.66;;;12.07;100.00
48553;BME280;34335;51.566;6.994;2023-03-22T13:51:31;100120.56;;;12.21;100.00
48553;BME280;34335;51.566;6.994;2023-03-22T13:56:50;100107.94;;;12.46;100.00
48553;BME280;34335;51.566;6.994;2023-03-22T14:02:02;100106.00;;;12.56;100.00
48553;BME280;34335;51.566;6.994;2023-03-22T14:04:55;100113.97;;;12.50;100.00
48553;BME280;34335;51.566;6.994;2023-03-22T14:07:28;100124.59;;;12.37;100.00
48553;BME280;34335;51.566;6.994;2023-03-22T14:10:00;100116.06;;;12.30;100.00
48553;BME280;34335;51.566;6.994;2023-03-22T14:12:30;100123.81;;;12.34;100.00
48553;BME280;34335;51.566;6.994;2023-03-22T14:15:03;100116.88;;;12.32;100.00
48553;BME280;34335;51.566;6.994;2023-03-22T14:20:14;100117.78;;;12.30;100.00
48553;BME280;34335;51.566;6.994;2023-03-22T14:22:49;100118.75;;;12.26;100.00
48553;BME280;34335;51.566;6.994;2023-03-22T14:25:21;100123.97;;;12.26;100.00
48553;BME280;34335;51.566;6.994;2023-03-22T14:27:49;100114.50;;;12.20;100.00